sensor_id;sensor_type;location;lat;lon;timestamp;pressure;altitude;pressure_sealevel;temperature;humidity
62725;BME280;49026;52.600;4.694;2022-11-20T00:00:23;101456.81;;;-3.65;71.56
62725;BME280;49026;52.600;4.694;2022-11-20T00:02:49;101458.63;;;-3.62;71.54
62725;BME280;49026;52.600;4.694;2022-11-20T00:05:14;101461.19;;;-3.62;71.82
62725;BME280;49026;52.600;4.694;2022-11-20T00:07:40;101459.44;;;-3.63;71.84
62725;BME280;49026;52.600;4.694;2022-11-20T00:10:05;101462.88;;;-3.63;71.88
62725;BME280;49026;52.600;4.694;2022-11-20T00:12:31;101467.09;;;-3.65;71.93
62725;BME280;49026;52.600;4.694;2022-11-20T00:14:56;101461.06;;;-3.67;71.80
62725;BME280;49026;52.600;4.694;2022-11-20T00:17:21;101455.88;;;-3.68;72.11
62725;BME280;49026;52.600;4.694;2022-11-20T00:19:47;101454.03;;;-3.73;71.99
62725;BME280;49026;52.600;4.694;2022-11-20T00:22:12;101439.38;;;-3.77;72.17
62725;BME280;49026;52.600;4.694;2022-11-20T00:24:37;101438.47;;;-3.79;72.51
62725;BME280;49026;52.600;4.694;2022-11-20T00:27:03;101436.66;;;-3.81;72.00
62725;BME280;49026;52.600;4.694;2022-11-20T00:29:28;101441.75;;;-3.83;72.07
62725;BME280;49026;52.600;4.694;2022-11-20T00:31:54;101443.50;;;-3.82;72.17
62725;BME280;49026;52.600;4.694;2022-11-20T00:34:19;101439.19;;;-3.83;71.87
62725;BME280;49026;52.600;4.694;2022-11-20T00:36:44;101444.41;;;-3.80;72.07
62725;BME280;49026;52.600;4.694;2022-11-20T00:39:10;101445.31;;;-3.78;72.32
62725;BME280;49026;52.600;4.694;2022-11-20T00:41:35;101441.94;;;-3.77;71.91
62725;BME280;49026;52.600;4.694;2022-11-20T00:44:01;101448.75;;;-3.79;72.03
62725;BME280;49026;52.600;4.694;2022-11-20T00:46:27;101444.28;;;-3.84;71.49
62725;BME280;49026;52.600;4.694;2022-11-20T00:48:53;101434.72;;;-3.90;71.71
62725;BME280;49026;52.600;4.694;2022-11-20T00:51:20;101434.63;;;-3.93;71.88
62725;BME280;49026;52.600;4.694;2022-11-20T00:53:46;101437.09;;;-3.96;71.71
62725;BME280;49026;52.600;4.694;2022-11-20T00:56:14;101432.81;;;-3.97;71.93
62725;BME280;49026;52.600;4.694;2022-11-20T00:58:41;101441.41;;;-3.95;71.82
62725;BME280;49026;52.600;4.694;2022-11-20T01:01:13;101435.47;;;-3.94;71.99
62725;BME280;49026;52.600;4.694;2022-11-20T01:03:40;101437.94;;;-3.97;71.73
62725;BME280;49026;52.600;4.694;2022-11-20T01:06:22;101440.50;;;-3.97;71.99
62725;BME280;49026;52.600;4.694;2022-11-20T01:08:49;101429.47;;;-3.93;71.99
62725;BME280;49026;52.600;4.694;2022-11-20T01:11:23;101424.41;;;-3.92;71.87
62725;BME280;49026;52.600;4.694;2022-11-20T01:13:50;101427.75;;;-3.94;71.73
62725;BME280;49026;52.600;4.694;2022-11-20T01:16:36;101429.44;;;-3.95;71.49
62725;BME280;49026;52.600;4.694;2022-11-20T01:19:06;101427.66;;;-3.97;71.75
62725;BME280;49026;52.600;4.694;2022-11-20T01:21:36;101420.69;;;-4.01;71.67
62725;BME280;49026;52.600;4.694;2022-11-20T01:24:04;101425.72;;;-4.04;71.62
62725;BME280;49026;52.600;4.694;2022-11-20T01:26:33;101425.72;;;-4.04;71.53
62725;BME280;49026;52.600;4.694;2022-11-20T01:28:59;101422.25;;;-4.06;71.61
62725;BME280;49026;52.600;4.694;2022-11-20T01:31:28;101423.91;;;-4.08;71.55
62725;BME280;49026;52.600;4.694;2022-11-20T01:33:56;101422.91;;;-4.14;71.62
62725;BME280;49026;52.600;4.694;2022-11-20T01:36:23;101410.00;;;-4.17;71.97
62725;BME280;49026;52.600;4.694;2022-11-20T01:38:54;101402.25;;;-4.18;72.17
62725;BME280;49026;52.600;4.694;2022-11-20T01:41:20;101403.09;;;-4.18;71.87
62725;BME280;49026;52.600;4.694;2022-11-20T01:44:04;101398.84;;;-4.17;71.31
62725;BME280;49026;52.600;4.694;2022-11-20T01:46:37;101404.84;;;-4.17;71.45
62725;BME280;49026;52.600;4.694;2022-11-20T01:49:09;101409.88;;;-4.20;71.62
62725;BME280;49026;52.600;4.694;2022-11-20T01:51:45;101396.88;;;-4.26;71.74
62725;BME280;49026;52.600;4.694;2022-11-20T01:54:16;101389.81;;;-4.33;71.88
62725;BME280;49026;52.600;4.694;2022-11-20T01:56:44;101386.31;;;-4.37;71.53
62725;BME280;49026;52.600;4.694;2022-11-20T01:59:12;101382.94;;;-4.36;72.34
62725;BME280;49026;52.600;4.694;2022-11-20T02:01:39;101383.97;;;-4.29;72.13
62725;BME280;49026;52.600;4.694;2022-11-20T02:04:06;101382.28;;;-4.29;72.24
62725;BME280;49026;52.600;4.694;2022-11-20T02:06:41;101372.06;;;-4.27;71.90
62725;BME280;49026;52.600;4.694;2022-11-20T02:09:07;101381.47;;;-4.26;71.80
62725;BME280;49026;52.600;4.694;2022-11-20T02:11:32;101375.34;;;-4.31;71.73
62725;BME280;49026;52.600;4.694;2022-11-20T02:13:59;101380.47;;;-4.31;72.19
62725;BME280;49026;52.600;4.694;2022-11-20T02:16:32;101384.69;;;-4.33;72.11
62725;BME280;49026;52.600;4.694;2022-11-20T02:19:01;101376.13;;;-4.34;71.94
62725;BME280;49026;52.600;4.694;2022-11-20T02:21:40;101371.09;;;-4.31;72.13
62725;BME280;49026;52.600;4.694;2022-11-20T02:24:19;101382.13;;;-4.33;71.92
62725;BME280;49026;52.600;4.694;2022-11-20T02:29:11;101378.56;;;-4.38;71.90
62725;BME280;49026;52.600;4.694;2022-11-20T02:31:40;101378.47;;;-4.41;71.70
62725;BME280;49026;52.600;4.694;2022-11-20T02:34:07;101383.44;;;-4.48;71.94
62725;BME280;49026;52.600;4.694;2022-11-20T02:36:33;101381.63;;;-4.50;71.68
62725;BME280;49026;52.600;4.694;2022-11-20T02:39:01;101375.53;;;-4.54;71.81
62725;BME280;49026;52.600;4.694;2022-11-20T02:41:32;101372.97;;;-4.54;71.90
62725;BME280;49026;52.600;4.694;2022-11-20T02:43:57;101367.75;;;-4.57;71.73
62725;BME280;49026;52.600;4.694;2022-11-20T02:46:22;101355.69;;;-4.61;72.40
62725;BME280;49026;52.600;4.694;2022-11-20T02:48:48;101359.16;;;-4.59;72.43
62725;BME280;49026;52.600;4.694;2022-11-20T02:51:13;101362.53;;;-4.60;72.23
62725;BME280;49026;52.600;4.694;2022-11-20T02:53:38;101360.06;;;-4.57;71.83
62725;BME280;49026;52.600;4.694;2022-11-20T02:56:04;101354.13;;;-4.56;72.25
62725;BME280;49026;52.600;4.694;2022-11-20T02:58:30;101357.50;;;-4.57;72.01
62725;BME280;49026;52.600;4.694;2022-11-20T03:00:55;101350.66;;;-4.56;72.00
62725;BME280;49026;52.600;4.694;2022-11-20T03:03:21;101343.81;;;-4.57;72.23
62725;BME280;49026;52.600;4.694;2022-11-20T03:05:46;101338.59;;;-4.60;72.21
62725;BME280;49026;52.600;4.694;2022-11-20T03:08:11;101343.75;;;-4.59;72.05
62725;BME280;49026;52.600;4.694;2022-11-20T03:10:37;101340.34;;;-4.58;71.64
62725;BME280;49026;52.600;4.694;2022-11-20T03:13:02;101338.72;;;-4.56;71.94
62725;BME280;49026;52.600;4.694;2022-11-20T03:15:27;101336.97;;;-4.57;71.77
62725;BME280;49026;52.600;4.694;2022-11-20T03:17:54;101339.53;;;-4.57;71.76
62725;BME280;49026;52.600;4.694;2022-11-20T03:20:20;101331.75;;;-4.60;71.98
62725;BME280;49026;52.600;4.694;2022-11-20T03:22:46;101321.28;;;-4.66;71.51
62725;BME280;49026;52.600;4.694;2022-11-20T03:25:11;101325.41;;;-4.71;71.85
62725;BME280;49026;52.600;4.694;2022-11-20T03:27:37;101328.78;;;-4.74;72.58
62725;BME280;49026;52.600;4.694;2022-11-20T03:30:03;101327.91;;;-4.74;72.11
62725;BME280;49026;52.600;4.694;2022-11-20T03:32:28;101330.38;;;-4.77;71.92
62725;BME280;49026;52.600;4.694;2022-11-20T03:34:54;101329.44;;;-4.79;72.29
62725;BME280;49026;52.600;4.694;2022-11-20T03:37:19;101323.50;;;-4.78;72.08
62725;BME280;49026;52.600;4.694;2022-11-20T03:39:45;101315.06;;;-4.76;72.44
62725;BME280;49026;52.600;4.694;2022-11-20T03:42:10;101317.66;;;-4.74;72.40
62725;BME280;49026;52.600;4.694;2022-11-20T03:44:56;101309.03;;;-4.76;72.02
62725;BME280;49026;52.600;4.694;2022-11-20T03:47:21;101307.41;;;-4.74;72.13
62725;BME280;49026;52.600;4.694;2022-11-20T03:49:46;101309.19;;;-4.72;71.99
62725;BME280;49026;52.600;4.694;2022-11-20T03:52:12;101304.00;;;-4.73;71.92
62725;BME280;49026;52.600;4.694;2022-11-20T03:54:37;101303.03;;;-4.77;71.66
62725;BME280;49026;52.600;4.694;2022-11-20T03:57:03;101301.22;;;-4.81;72.09
62725;BME280;49026;52.600;4.694;2022-11-20T03:59:28;101290.81;;;-4.86;72.03
62725;BME280;49026;52.600;4.694;2022-11-20T04:01:53;101283.94;;;-4.87;72.24
62725;BME280;49026;52.600;4.694;2022-11-20T04:04:19;101285.66;;;-4.87;72.13
62725;BME280;49026;52.600;4.694;2022-11-20T04:06:44;101283.84;;;-4.90;72.38
62725;BME280;49026;52.600;4.694;2022-11-20T04:09:09;101277.81;;;-4.92;72.33
62725;BME280;49026;52.600;4.694;2022-11-20T04:11:37;101283.81;;;-4.91;72.17
62725;BME280;49026;52.600;4.694;2022-11-20T04:14:05;101274.44;;;-4.91;72.34
62725;BME280;49026;52.600;4.694;2022-11-20T04:16:33;101271.03;;;-4.90;72.32
62725;BME280;49026;52.600;4.694;2022-11-20T04:19:01;101271.13;;;-4.87;72.20
62725;BME280;49026;52.600;4.694;2022-11-20T04:21:28;101273.84;;;-4.82;72.17
62725;BME280;49026;52.600;4.694;2022-11-20T04:23:54;101278.16;;;-4.79;71.97
62725;BME280;49026;52.600;4.694;2022-11-20T04:26:20;101275.59;;;-4.81;71.92
62725;BME280;49026;52.600;4.694;2022-11-20T04:28:46;101269.56;;;-4.81;72.14
62725;BME280;49026;52.600;4.694;2022-11-20T04:31:13;101276.44;;;-4.80;71.99
62725;BME280;49026;52.600;4.694;2022-11-20T04:33:40;101278.22;;;-4.78;72.42
62725;BME280;49026;52.600;4.694;2022-11-20T04:36:09;101268.94;;;-4.74;72.63
62725;BME280;49026;52.600;4.694;2022-11-20T04:38:35;101257.75;;;-4.76;72.38
62725;BME280;49026;52.600;4.694;2022-11-20T04:41:03;101260.31;;;-4.76;72.61
62725;BME280;49026;52.600;4.694;2022-11-20T04:43:29;101262.09;;;-4.74;72.50
62725;BME280;49026;52.600;4.694;2022-11-20T04:45:56;101272.50;;;-4.69;72.39
62725;BME280;49026;52.600;4.694;2022-11-20T04:48:22;101261.50;;;-4.65;72.36
62725;BME280;49026;52.600;4.694;2022-11-20T04:50:48;101254.63;;;-4.66;72.35
62725;BME280;49026;52.600;4.694;2022-11-20T04:53:14;101252.09;;;-4.65;72.56
62725;BME280;49026;52.600;4.694;2022-11-20T04:55:39;101246.22;;;-4.62;72.60
62725;BME280;49026;52.600;4.694;2022-11-20T04:58:05;101247.97;;;-4.61;72.38
62725;BME280;49026;52.600;4.694;2022-11-20T05:00:30;101246.22;;;-4.62;72.46
62725;BME280;49026;52.600;4.694;2022-11-20T05:02:56;101248.59;;;-4.68;72.46
62725;BME280;49026;52.600;4.694;2022-11-20T05:05:21;101243.38;;;-4.71;73.17
62725;BME280;49026;52.600;4.694;2022-11-20T05:07:47;101239.19;;;-4.69;73.30
62725;BME280;49026;52.600;4.694;2022-11-20T05:10:12;101238.31;;;-4.68;73.05
62725;BME280;49026;52.600;4.694;2022-11-20T05:12:38;101237.47;;;-4.69;72.86
62725;BME280;49026;52.600;4.694;2022-11-20T05:15:03;101244.34;;;-4.66;72.90
62725;BME280;49026;52.600;4.694;2022-11-20T05:17:29;101240.16;;;-4.64;73.05
62725;BME280;49026;52.600;4.694;2022-11-20T05:19:54;101245.31;;;-4.64;72.68
62725;BME280;49026;52.600;4.694;2022-11-20T05:22:20;101241.84;;;-4.65;72.89
62725;BME280;49026;52.600;4.694;2022-11-20T05:24:45;101241.03;;;-4.63;72.91
62725;BME280;49026;52.600;4.694;2022-11-20T05:27:11;101239.31;;;-4.63;72.78
62725;BME280;49026;52.600;4.694;2022-11-20T05:29:36;101239.31;;;-4.63;72.67
62725;BME280;49026;52.600;4.694;2022-11-20T05:32:02;101238.47;;;-4.63;72.58
62725;BME280;49026;52.600;4.694;2022-11-20T05:34:27;101238.47;;;-4.63;73.02
62725;BME280;49026;52.600;4.694;2022-11-20T05:36:52;101239.31;;;-4.63;73.37
62725;BME280;49026;52.600;4.694;2022-11-20T05:39:18;101241.13;;;-4.60;73.05
62725;BME280;49026;52.600;4.694;2022-11-20T05:41:43;101251.44;;;-4.59;72.81
62725;BME280;49026;52.600;4.694;2022-11-20T05:44:12;101248.00;;;-4.58;73.43
62725;BME280;49026;52.600;4.694;2022-11-20T05:46:37;101250.66;;;-4.55;73.49
62725;BME280;49026;52.600;4.694;2022-11-20T05:49:02;101260.16;;;-4.52;73.23
62725;BME280;49026;52.600;4.694;2022-11-20T05:51:28;101253.31;;;-4.52;73.34
62725;BME280;49026;52.600;4.694;2022-11-20T05:53:53;101247.44;;;-4.49;73.50
62725;BME280;49026;52.600;4.694;2022-11-20T05:56:21;101246.75;;;-4.42;73.53
62725;BME280;49026;52.600;4.694;2022-11-20T05:58:47;101245.16;;;-4.38;73.76
62725;BME280;49026;52.600;4.694;2022-11-20T06:01:16;101246.09;;;-4.35;73.51
62725;BME280;49026;52.600;4.694;2022-11-20T06:03:42;101236.78;;;-4.31;73.66
62725;BME280;49026;52.600;4.694;2022-11-20T06:06:09;101242.00;;;-4.28;73.98
62725;BME280;49026;52.600;4.694;2022-11-20T06:08:34;101232.63;;;-4.26;73.59
62725;BME280;49026;52.600;4.694;2022-11-20T06:11:09;101227.59;;;-4.23;73.88
62725;BME280;49026;52.600;4.694;2022-11-20T06:13:35;101227.72;;;-4.18;74.00
62725;BME280;49026;52.600;4.694;2022-11-20T06:16:00;101232.09;;;-4.16;73.93
62725;BME280;49026;52.600;4.694;2022-11-20T06:18:27;101221.88;;;-4.13;74.31
62725;BME280;49026;52.600;4.694;2022-11-20T06:21:07;101221.09;;;-4.10;74.84
62725;BME280;49026;52.600;4.694;2022-11-20T06:23:33;101228.91;;;-4.05;75.63
62725;BME280;49026;52.600;4.694;2022-11-20T06:26:07;101226.47;;;-4.01;74.93
62725;BME280;49026;52.600;4.694;2022-11-20T06:28:33;101212.88;;;-3.97;75.50
62725;BME280;49026;52.600;4.694;2022-11-20T06:30:58;101215.53;;;-3.94;74.97
62725;BME280;49026;52.600;4.694;2022-11-20T06:33:24;101220.69;;;-3.92;75.28
62725;BME280;49026;52.600;4.694;2022-11-20T06:35:49;101215.66;;;-3.89;75.72
62725;BME280;49026;52.600;4.694;2022-11-20T06:38:15;101218.22;;;-3.89;76.73
62725;BME280;49026;52.600;4.694;2022-11-20T06:40:41;101222.56;;;-3.85;77.68
62725;BME280;49026;52.600;4.694;2022-11-20T06:43:08;101219.28;;;-3.81;77.53
62725;BME280;49026;52.600;4.694;2022-11-20T06:45:33;101216.75;;;-3.78;77.52
62725;BME280;49026;52.600;4.694;2022-11-20T06:47:59;101208.16;;;-3.80;80.65
62725;BME280;49026;52.600;4.694;2022-11-20T06:50:24;101207.34;;;-3.79;81.58
62725;BME280;49026;52.600;4.694;2022-11-20T06:52:49;101200.53;;;-3.77;83.82
62725;BME280;49026;52.600;4.694;2022-11-20T06:55:15;101195.47;;;-3.74;84.01
62725;BME280;49026;52.600;4.694;2022-11-20T06:57:40;101204.16;;;-3.68;84.44
62725;BME280;49026;52.600;4.694;2022-11-20T07:00:06;101206.75;;;-3.67;84.97
62725;BME280;49026;52.600;4.694;2022-11-20T07:02:32;101199.13;;;-3.64;84.24
62725;BME280;49026;52.600;4.694;2022-11-20T07:04:57;101192.38;;;-3.60;83.82
62725;BME280;49026;52.600;4.694;2022-11-20T07:07:22;101195.91;;;-3.55;84.09
62725;BME280;49026;52.600;4.694;2022-11-20T07:09:48;101194.31;;;-3.50;85.18
62725;BME280;49026;52.600;4.694;2022-11-20T07:12:13;101200.34;;;-3.48;85.28
62725;BME280;49026;52.600;4.694;2022-11-20T07:14:39;101195.28;;;-3.45;85.96
62725;BME280;49026;52.600;4.694;2022-11-20T07:17:04;101190.25;;;-3.40;86.00
62725;BME280;49026;52.600;4.694;2022-11-20T07:19:29;101195.47;;;-3.37;85.82
62725;BME280;49026;52.600;4.694;2022-11-20T07:21:55;101192.06;;;-3.35;86.85
62725;BME280;49026;52.600;4.694;2022-11-20T07:24:20;101194.75;;;-3.30;86.24
62725;BME280;49026;52.600;4.694;2022-11-20T07:26:46;101193.25;;;-3.20;85.37
62725;BME280;49026;52.600;4.694;2022-11-20T07:29:16;101197.81;;;-3.08;84.74
62725;BME280;49026;52.600;4.694;2022-11-20T07:31:41;101202.41;;;-2.93;85.20
62725;BME280;49026;52.600;4.694;2022-11-20T07:34:07;101196.81;;;-2.72;85.41
62725;BME280;49026;52.600;4.694;2022-11-20T07:36:32;101190.41;;;-2.50;85.84
62725;BME280;49026;52.600;4.694;2022-11-20T07:38:58;101190.63;;;-2.38;84.91
62725;BME280;49026;52.600;4.694;2022-11-20T07:41:23;101194.13;;;-2.34;84.97
62725;BME280;49026;52.600;4.694;2022-11-20T07:43:48;101188.16;;;-2.32;84.77
62725;BME280;49026;52.600;4.694;2022-11-20T07:46:14;101180.06;;;-2.03;84.86
62725;BME280;49026;52.600;4.694;2022-11-20T07:48:39;101177.06;;;-1.77;85.24
62725;BME280;49026;52.600;4.694;2022-11-20T07:51:05;101177.75;;;-1.88;84.04
62725;BME280;49026;52.600;4.694;2022-11-20T07:53:30;101167.16;;;-2.06;83.89
62725;BME280;49026;52.600;4.694;2022-11-20T07:55:59;101178.06;;;-2.19;83.79
62725;BME280;49026;52.600;4.694;2022-11-20T07:58:25;101176.31;;;-2.24;83.12
62725;BME280;49026;52.600;4.694;2022-11-20T08:00:50;101172.94;;;-2.19;84.07
62725;BME280;49026;52.600;4.694;2022-11-20T08:03:16;101175.56;;;-2.16;83.83
62725;BME280;49026;52.600;4.694;2022-11-20T08:05:41;101169.59;;;-2.12;83.47
62725;BME280;49026;52.600;4.694;2022-11-20T08:08:07;101159.31;;;-2.12;83.21
62725;BME280;49026;52.600;4.694;2022-11-20T08:10:33;101160.25;;;-2.09;83.22
62725;BME280;49026;52.600;4.694;2022-11-20T08:12:58;101161.22;;;-2.02;82.88
62725;BME280;49026;52.600;4.694;2022-11-20T08:15:48;101153.53;;;-1.97;82.77
62725;BME280;49026;52.600;4.694;2022-11-20T08:18:13;101151.91;;;-1.94;82.96
62725;BME280;49026;52.600;4.694;2022-11-20T08:20:39;101151.16;;;-1.87;83.31
62725;BME280;49026;52.600;4.694;2022-11-20T08:23:05;101149.56;;;-1.78;82.83
62725;BME280;49026;52.600;4.694;2022-11-20T08:25:33;101154.84;;;-1.69;82.58
62725;BME280;49026;52.600;4.694;2022-11-20T08:28:00;101150.66;;;-1.62;82.42
62725;BME280;49026;52.600;4.694;2022-11-20T08:30:26;101149.91;;;-1.57;82.48
62725;BME280;49026;52.600;4.694;2022-11-20T08:32:52;101160.31;;;-1.47;81.74
62725;BME280;49026;52.600;4.694;2022-11-20T08:35:17;101168.22;;;-1.38;80.84
62725;BME280;49026;52.600;4.694;2022-11-20T08:37:46;101177.78;;;-1.28;80.94
62725;BME280;49026;52.600;4.694;2022-11-20T08:40:12;101167.56;;;-1.23;81.47
62725;BME280;49026;52.600;4.694;2022-11-20T08:42:46;101159.88;;;-1.17;81.48
62725;BME280;49026;52.600;4.694;2022-11-20T08:45:11;101153.09;;;-1.10;82.24
62725;BME280;49026;52.600;4.694;2022-11-20T08:47:36;101143.69;;;-1.08;83.44
62725;BME280;49026;52.600;4.694;2022-11-20T08:50:02;101148.88;;;-1.02;84.28
62725;BME280;49026;52.600;4.694;2022-11-20T08:52:27;101142.06;;;-0.97;83.05
62725;BME280;49026;52.600;4.694;2022-11-20T08:54:53;101149.06;;;-0.90;82.68
62725;BME280;49026;52.600;4.694;2022-11-20T08:57:18;101143.94;;;-0.85;82.59
62725;BME280;49026;52.600;4.694;2022-11-20T08:59:44;101142.28;;;-0.80;82.48
62725;BME280;49026;52.600;4.694;2022-11-20T09:02:09;101141.50;;;-0.75;82.93
62725;BME280;49026;52.600;4.694;2022-11-20T09:04:34;101139.00;;;-0.67;82.70
62725;BME280;49026;52.600;4.694;2022-11-20T09:07:00;101126.09;;;-0.64;82.22
62725;BME280;49026;52.600;4.694;2022-11-20T09:09:25;101125.31;;;-0.58;82.00
62725;BME280;49026;52.600;4.694;2022-11-20T09:11:51;101125.38;;;-0.52;81.83
62725;BME280;49026;52.600;4.694;2022-11-20T09:14:16;101123.72;;;-0.44;81.40
62725;BME280;49026;52.600;4.694;2022-11-20T09:16:42;101122.09;;;-0.35;81.32
62725;BME280;49026;52.600;4.694;2022-11-20T09:19:09;101114.41;;;-0.29;80.68
62725;BME280;49026;52.600;4.694;2022-11-20T09:21:35;101115.38;;;-0.18;80.50
62725;BME280;49026;52.600;4.694;2022-11-20T09:24:00;101119.72;;;-0.09;80.28
62725;BME280;49026;52.600;4.694;2022-11-20T09:26:25;101118.94;;;-0.01;79.94
62725;BME280;49026;52.600;4.694;2022-11-20T09:28:50;101101.78;;;0.08;79.76
62725;BME280;49026;52.600;4.694;2022-11-20T09:31:25;101100.94;;;0.15;79.69
62725;BME280;49026;52.600;4.694;2022-11-20T09:33:51;101094.13;;;0.25;79.86
62725;BME280;49026;52.600;4.694;2022-11-20T09:36:17;101096.78;;;0.34;79.40
62725;BME280;49026;52.600;4.694;2022-11-20T09:38:45;101091.69;;;0.48;78.85
62725;BME280;49026;52.600;4.694;2022-11-20T09:41:45;101100.38;;;0.62;78.46
62725;BME280;49026;52.600;4.694;2022-11-20T09:47:12;101084.97;;;0.82;77.57
62725;BME280;49026;52.600;4.694;2022-11-20T09:50:07;101087.63;;;1.04;77.33
62725;BME280;49026;52.600;4.694;2022-11-20T09:53:12;101098.91;;;1.38;76.86
62725;BME280;49026;52.600;4.694;2022-11-20T09:55:30;101092.00;;;1.46;75.48
62725;BME280;49026;52.600;4.694;2022-11-20T09:57:57;101084.22;;;1.42;74.91
62725;BME280;49026;52.600;4.694;2022-11-20T10:00:24;101066.97;;;1.47;75.03
62725;BME280;49026;52.600;4.694;2022-11-20T10:05:47;101054.88;;;2.08;73.32
62725;BME280;49026;52.600;4.694;2022-11-20T10:08:16;101056.59;;;2.18;71.88
62725;BME280;49026;52.600;4.694;2022-11-20T10:10:50;101060.06;;;2.08;72.40
62725;BME280;49026;52.600;4.694;2022-11-20T10:24:42;101018.66;;;1.71;73.21
62725;BME280;49026;52.600;4.694;2022-11-20T10:27:35;101010.88;;;1.67;73.72
62725;BME280;49026;52.600;4.694;2022-11-20T10:30:09;101013.47;;;1.64;74.31
62725;BME280;49026;52.600;4.694;2022-11-20T10:32:38;101005.69;;;1.63;74.19
62725;BME280;49026;52.600;4.694;2022-11-20T10:37:44;101005.69;;;1.60;75.34
62725;BME280;49026;52.600;4.694;2022-11-20T10:40:27;100998.78;;;1.65;75.64
62725;BME280;49026;52.600;4.694;2022-11-20T10:43:14;100986.69;;;1.78;75.94
62725;BME280;49026;52.600;4.694;2022-11-20T10:46:06;100985.78;;;1.88;75.71
62725;BME280;49026;52.600;4.694;2022-11-20T10:48:31;100976.28;;;1.95;76.53
62725;BME280;49026;52.600;4.694;2022-11-20T10:51:08;100972.81;;;1.96;76.09
62725;BME280;49026;52.600;4.694;2022-11-20T10:53:42;100971.09;;;1.95;76.00
62725;BME280;49026;52.600;4.694;2022-11-20T11:01:51;100955.53;;;1.92;75.95
62725;BME280;49026;52.600;4.694;2022-11-20T11:06:48;100959.03;;;1.91;76.94
62725;BME280;49026;52.600;4.694;2022-11-20T11:09:17;100955.53;;;1.89;77.23
62725;BME280;49026;52.600;4.694;2022-11-20T11:11:46;100946.06;;;1.89;77.70
62725;BME280;49026;52.600;4.694;2022-11-20T11:14:13;100947.78;;;1.92;77.36
62725;BME280;49026;52.600;4.694;2022-11-20T11:16:54;100952.94;;;1.92;77.52
62725;BME280;49026;52.600;4.694;2022-11-20T11:19:20;100951.22;;;1.94;78.22
62725;BME280;49026;52.600;4.694;2022-11-20T11:21:54;100947.78;;;1.93;78.13
62725;BME280;49026;52.600;4.694;2022-11-20T11:24:22;100945.19;;;1.92;77.86
62725;BME280;49026;52.600;4.694;2022-11-20T11:29:22;100933.94;;;1.96;78.77
62725;BME280;49026;52.600;4.694;2022-11-20T11:32:02;100927.03;;;1.96;78.97
62725;BME280;49026;52.600;4.694;2022-11-20T11:34:27;100915.81;;;1.99;78.87
62725;BME280;49026;52.600;4.694;2022-11-20T11:36:57;100904.53;;;2.01;79.30
62725;BME280;49026;52.600;4.694;2022-11-20T11:39:23;100905.41;;;2.03;80.29
62725;BME280;49026;52.600;4.694;2022-11-20T11:41:50;100901.94;;;2.03;80.24
62725;BME280;49026;52.600;4.694;2022-11-20T11:44:32;100895.88;;;2.10;79.96
62725;BME280;49026;52.600;4.694;2022-11-20T11:47:30;100882.88;;;2.19;80.12
62725;BME280;49026;52.600;4.694;2022-11-20T11:58:50;100861.09;;;2.45;79.68
62725;BME280;49026;52.600;4.694;2022-11-20T12:06:36;100858.47;;;2.51;80.14
62725;BME280;49026;52.600;4.694;2022-11-20T12:09:08;100845.50;;;2.51;81.32
62725;BME280;49026;52.600;4.694;2022-11-20T12:14:11;100829.97;;;2.45;81.25
62725;BME280;49026;52.600;4.694;2022-11-20T12:16:39;100828.34;;;2.33;81.60
62725;BME280;49026;52.600;4.694;2022-11-20T12:19:13;100832.72;;;2.25;81.65
62725;BME280;49026;52.600;4.694;2022-11-20T12:21:54;100822.34;;;2.20;82.59
62725;BME280;49026;52.600;4.694;2022-11-20T12:30:21;100815.56;;;2.04;83.08
62725;BME280;49026;52.600;4.694;2022-11-20T12:33:24;100807.78;;;2.02;83.47
62725;BME280;49026;52.600;4.694;2022-11-20T12:50:56;100778.56;;;1.74;85.00
62725;BME280;49026;52.600;4.694;2022-11-20T13:01:36;100766.56;;;1.47;87.63
62725;BME280;49026;52.600;4.694;2022-11-20T13:04:28;100762.31;;;1.35;88.45
62725;BME280;49026;52.600;4.694;2022-11-20T13:06:58;100741.63;;;1.32;89.20
62725;BME280;49026;52.600;4.694;2022-11-20T13:09:26;100736.44;;;1.32;90.16
62725;BME280;49026;52.600;4.694;2022-11-20T13:12:10;100746.75;;;1.35;89.96
62725;BME280;49026;52.600;4.694;2022-11-20T13:15:00;100731.22;;;1.35;90.93
62725;BME280;49026;52.600;4.694;2022-11-20T13:17:41;100726.03;;;1.41;90.87
62725;BME280;49026;52.600;4.694;2022-11-20T13:20:16;100719.13;;;1.43;91.27
62725;BME280;49026;52.600;4.694;2022-11-20T13:25:10;100713.09;;;1.43;92.19
62725;BME280;49026;52.600;4.694;2022-11-20T13:27:46;100713.94;;;1.43;92.52
62725;BME280;49026;52.600;4.694;2022-11-20T13:30:15;100713.94;;;1.48;92.73
62725;BME280;49026;52.600;4.694;2022-11-20T13:32:55;100695.81;;;1.42;92.97
62725;BME280;49026;52.600;4.694;2022-11-20T13:35:35;100703.56;;;1.46;92.62
62725;BME280;49026;52.600;4.694;2022-11-20T13:38:07;100716.50;;;1.51;93.71
62725;BME280;49026;52.600;4.694;2022-11-20T13:40:34;100696.66;;;1.47;93.69
62725;BME280;49026;52.600;4.694;2022-11-20T13:43:07;100706.16;;;1.43;93.40
62725;BME280;49026;52.600;4.694;2022-11-20T13:45:33;100705.34;;;1.38;94.09
62725;BME280;49026;52.600;4.694;2022-11-20T13:48:15;100700.13;;;1.43;93.69
62725;BME280;49026;52.600;4.694;2022-11-20T13:59:37;100700.13;;;1.47;95.28
62725;BME280;49026;52.600;4.694;2022-11-20T14:02:14;100694.06;;;1.52;95.38
62725;BME280;49026;52.600;4.694;2022-11-20T14:04:43;100685.44;;;1.51;95.74
62725;BME280;49026;52.600;4.694;2022-11-20T14:07:10;100674.16;;;1.57;96.24
62725;BME280;49026;52.600;4.694;2022-11-20T14:09:36;100665.53;;;1.59;96.37
62725;BME280;49026;52.600;4.694;2022-11-20T14:12:03;100663.75;;;1.66;96.06
62725;BME280;49026;52.600;4.694;2022-11-20T14:14:30;100649.06;;;1.65;96.35
62725;BME280;49026;52.600;4.694;2022-11-20T14:17:18;100651.63;;;1.71;96.23
62725;BME280;49026;52.600;4.694;2022-11-20T14:19:45;100642.19;;;1.62;96.28
62725;BME280;49026;52.600;4.694;2022-11-20T14:22:23;100647.38;;;1.64;95.70
62725;BME280;49026;52.600;4.694;2022-11-20T14:27:34;100640.47;;;1.64;96.40
62725;BME280;49026;52.600;4.694;2022-11-20T14:30:02;100643.03;;;1.66;95.93
62725;BME280;49026;52.600;4.694;2022-11-20T14:32:29;100637.84;;;1.66;96.27